sensor_id;sensor_type;location;lat;lon;timestamp;temperature;humidity
20946;DHT22;10632;51.276;7.116;2023-02-07T00:00:55;0.00;99.90
20946;DHT22;10632;51.276;7.116;2023-02-07T00:03:22;-0.10;99.90
20946;DHT22;10632;51.276;7.116;2023-02-07T00:05:49;-0.10;99.90
20946;DHT22;10632;51.276;7.116;2023-02-07T00:08:16;-0.20;99.90
20946;DHT22;10632;51.276;7.116;2023-02-07T00:10:43;-0.10;99.90
20946;DHT22;10632;51.276;7.116;2023-02-07T00:13:11;-0.10;99.90
20946;DHT22;10632;51.276;7.116;2023-02-07T00:15:38;-0.20;99.90
20946;DHT22;10632;51.276;7.116;2023-02-07T00:18:05;-0.20;99.90
20946;DHT22;10632;51.276;7.116;2023-02-07T00:20:32;-0.20;99.90
20946;DHT22;10632;51.276;7.116;2023-02-07T00:22:58;-0.10;99.90
20946;DHT22;10632;51.276;7.116;2023-02-07T00:25:25;-0.10;99.90
20946;DHT22;10632;51.276;7.116;2023-02-07T00:27:52;-0.10;99.90
20946;DHT22;10632;51.276;7.116;2023-02-07T00:30:20;-0.10;99.90
20946;DHT22;10632;51.276;7.116;2023-02-07T00:32:47;-0.10;99.90
20946;DHT22;10632;51.276;7.116;2023-02-07T00:35:14;-0.10;99.90
20946;DHT22;10632;51.276;7.116;2023-02-07T00:37:43;-0.10;99.90
20946;DHT22;10632;51.276;7.116;2023-02-07T00:40:10;-0.10;99.90
20946;DHT22;10632;51.276;7.116;2023-02-07T00:42:37;-0.10;99.90
20946;DHT22;10632;51.276;7.116;2023-02-07T00:45:04;-0.20;99.90
20946;DHT22;10632;51.276;7.116;2023-02-07T00:47:33;-0.20;99.90
20946;DHT22;10632;51.276;7.116;2023-02-07T00:49:59;-0.20;99.90
20946;DHT22;10632;51.276;7.116;2023-02-07T00:52:26;-0.20;99.90
20946;DHT22;10632;51.276;7.116;2023-02-07T00:54:53;-0.30;99.90
20946;DHT22;10632;51.276;7.116;2023-02-07T00:57:20;-0.30;99.90
20946;DHT22;10632;51.276;7.116;2023-02-07T00:59:47;-0.30;99.90
20946;DHT22;10632;51.276;7.116;2023-02-07T01:02:14;-0.30;99.90
20946;DHT22;10632;51.276;7.116;2023-02-07T01:04:42;-0.30;99.90
20946;DHT22;10632;51.276;7.116;2023-02-07T01:07:09;-0.30;99.90
20946;DHT22;10632;51.276;7.116;2023-02-07T01:09:38;-0.30;99.90
20946;DHT22;10632;51.276;7.116;2023-02-07T01:12:05;-0.30;99.90
20946;DHT22;10632;51.276;7.116;2023-02-07T01:14:32;-0.30;99.90
20946;DHT22;10632;51.276;7.116;2023-02-07T01:16:59;-0.30;99.90
20946;DHT22;10632;51.276;7.116;2023-02-07T01:19:25;-0.30;99.90
20946;DHT22;10632;51.276;7.116;2023-02-07T01:21:54;-0.30;99.90
20946;DHT22;10632;51.276;7.116;2023-02-07T01:24:23;-0.40;99.90
20946;DHT22;10632;51.276;7.116;2023-02-07T01:26:50;-0.40;99.90
20946;DHT22;10632;51.276;7.116;2023-02-07T01:29:19;-0.40;99.90
20946;DHT22;10632;51.276;7.116;2023-02-07T01:31:46;-0.40;99.90
20946;DHT22;10632;51.276;7.116;2023-02-07T01:34:12;-0.40;99.90
20946;DHT22;10632;51.276;7.116;2023-02-07T01:36:39;-0.40;99.90
20946;DHT22;10632;51.276;7.116;2023-02-07T01:39:08;-0.50;99.90
20946;DHT22;10632;51.276;7.116;2023-02-07T01:41:35;-0.50;99.90
20946;DHT22;10632;51.276;7.116;2023-02-07T01:44:04;-0.50;99.90
20946;DHT22;10632;51.276;7.116;2023-02-07T01:46:32;-0.40;99.90
20946;DHT22;10632;51.276;7.116;2023-02-07T01:49:03;-0.40;99.90
20946;DHT22;10632;51.276;7.116;2023-02-07T01:51:31;-0.40;99.90
20946;DHT22;10632;51.276;7.116;2023-02-07T01:54:02;-0.40;99.90
20946;DHT22;10632;51.276;7.116;2023-02-07T01:56:31;-0.40;99.90
20946;DHT22;10632;51.276;7.116;2023-02-07T01:59:00;-0.40;99.90
20946;DHT22;10632;51.276;7.116;2023-02-07T02:01:28;-0.40;99.90
20946;DHT22;10632;51.276;7.116;2023-02-07T02:03:55;-0.40;99.90
20946;DHT22;10632;51.276;7.116;2023-02-07T02:06:25;-0.40;99.90
20946;DHT22;10632;51.276;7.116;2023-02-07T02:08:54;-0.40;99.90
20946;DHT22;10632;51.276;7.116;2023-02-07T02:11:59;-0.40;99.90
20946;DHT22;10632;51.276;7.116;2023-02-07T02:14:42;-0.40;99.90
20946;DHT22;10632;51.276;7.116;2023-02-07T02:17:18;-0.40;99.90
20946;DHT22;10632;51.276;7.116;2023-02-07T02:23:10;-0.50;99.90
20946;DHT22;10632;51.276;7.116;2023-02-07T02:28:51;-0.40;99.90
20946;DHT22;10632;51.276;7.116;2023-02-07T02:31:38;-0.40;99.90
20946;DHT22;10632;51.276;7.116;2023-02-07T02:34:17;-0.40;99.90
20946;DHT22;10632;51.276;7.116;2023-02-07T02:36:50;-0.40;99.90
20946;DHT22;10632;51.276;7.116;2023-02-07T02:39:22;-0.40;99.90
20946;DHT22;10632;51.276;7.116;2023-02-07T02:41:57;-0.40;99.90
20946;DHT22;10632;51.276;7.116;2023-02-07T02:44:30;-0.50;99.90
20946;DHT22;10632;51.276;7.116;2023-02-07T02:47:02;-0.50;99.90
20946;DHT22;10632;51.276;7.116;2023-02-07T02:49:31;-0.50;99.90
20946;DHT22;10632;51.276;7.116;2023-02-07T02:52:00;-0.50;99.90
20946;DHT22;10632;51.276;7.116;2023-02-07T02:54:30;-0.50;99.90
20946;DHT22;10632;51.276;7.116;2023-02-07T02:57:16;-0.60;99.90
20946;DHT22;10632;51.276;7.116;2023-02-07T03:00:00;-0.60;99.90
20946;DHT22;10632;51.276;7.116;2023-02-07T03:02:37;-0.60;99.90
20946;DHT22;10632;51.276;7.116;2023-02-07T03:05:14;-0.70;99.90
20946;DHT22;10632;51.276;7.116;2023-02-07T03:07:54;-0.70;99.90
20946;DHT22;10632;51.276;7.116;2023-02-07T03:10:30;-0.70;99.90
20946;DHT22;10632;51.276;7.116;2023-02-07T03:13:08;-0.70;99.90
20946;DHT22;10632;51.276;7.116;2023-02-07T03:15:46;-0.70;99.90
20946;DHT22;10632;51.276;7.116;2023-02-07T03:18:17;-0.70;99.90
20946;DHT22;10632;51.276;7.116;2023-02-07T03:20:51;-0.70;99.90
20946;DHT22;10632;51.276;7.116;2023-02-07T03:23:20;-0.70;99.90
20946;DHT22;10632;51.276;7.116;2023-02-07T03:25:48;-0.70;99.90
20946;DHT22;10632;51.276;7.116;2023-02-07T03:28:17;-0.70;99.90
20946;DHT22;10632;51.276;7.116;2023-02-07T03:30:46;-0.70;99.90
20946;DHT22;10632;51.276;7.116;2023-02-07T03:33:16;-0.70;99.90
20946;DHT22;10632;51.276;7.116;2023-02-07T03:35:48;-0.80;99.90
20946;DHT22;10632;51.276;7.116;2023-02-07T03:38:15;-0.80;99.90
20946;DHT22;10632;51.276;7.116;2023-02-07T03:40:45;-0.70;99.90
20946;DHT22;10632;51.276;7.116;2023-02-07T03:43:15;-0.80;99.90
20946;DHT22;10632;51.276;7.116;2023-02-07T03:45:44;-0.70;99.90
20946;DHT22;10632;51.276;7.116;2023-02-07T03:48:11;-0.80;99.90
20946;DHT22;10632;51.276;7.116;2023-02-07T03:50:38;-0.80;99.90
20946;DHT22;10632;51.276;7.116;2023-02-07T03:53:06;-0.80;99.90
20946;DHT22;10632;51.276;7.116;2023-02-07T03:55:33;-0.80;99.90
20946;DHT22;10632;51.276;7.116;2023-02-07T03:58:00;-0.80;99.90
20946;DHT22;10632;51.276;7.116;2023-02-07T04:00:27;-0.80;99.90
20946;DHT22;10632;51.276;7.116;2023-02-07T04:02:54;-0.80;99.90
20946;DHT22;10632;51.276;7.116;2023-02-07T04:05:21;-0.80;99.90
20946;DHT22;10632;51.276;7.116;2023-02-07T04:07:48;-0.80;99.90
20946;DHT22;10632;51.276;7.116;2023-02-07T04:10:18;-0.80;99.90
20946;DHT22;10632;51.276;7.116;2023-02-07T04:12:45;-0.80;99.90
20946;DHT22;10632;51.276;7.116;2023-02-07T04:15:12;-0.80;99.90
20946;DHT22;10632;51.276;7.116;2023-02-07T04:17:39;-0.80;99.90
20946;DHT22;10632;51.276;7.116;2023-02-07T04:20:07;-0.90;99.90
20946;DHT22;10632;51.276;7.116;2023-02-07T04:22:34;-0.90;99.90
20946;DHT22;10632;51.276;7.116;2023-02-07T04:25:01;-0.90;99.90
20946;DHT22;10632;51.276;7.116;2023-02-07T04:27:30;-0.90;99.90
20946;DHT22;10632;51.276;7.116;2023-02-07T04:29:56;-0.90;99.90
20946;DHT22;10632;51.276;7.116;2023-02-07T04:32:23;-0.90;99.90
20946;DHT22;10632;51.276;7.116;2023-02-07T04:34:50;-0.90;99.90
20946;DHT22;10632;51.276;7.116;2023-02-07T04:37:17;-0.90;99.90
20946;DHT22;10632;51.276;7.116;2023-02-07T04:39:44;-0.90;99.90
20946;DHT22;10632;51.276;7.116;2023-02-07T04:42:11;-0.90;99.90
20946;DHT22;10632;51.276;7.116;2023-02-07T04:44:39;-0.90;99.90
20946;DHT22;10632;51.276;7.116;2023-02-07T04:47:06;-1.00;99.90
20946;DHT22;10632;51.276;7.116;2023-02-07T04:49:33;-1.00;99.90
20946;DHT22;10632;51.276;7.116;2023-02-07T04:52:00;-1.00;99.90
20946;DHT22;10632;51.276;7.116;2023-02-07T04:54:27;-1.00;99.90
20946;DHT22;10632;51.276;7.116;2023-02-07T04:56:54;-1.00;99.90
20946;DHT22;10632;51.276;7.116;2023-02-07T04:59:21;-1.10;99.90
20946;DHT22;10632;51.276;7.116;2023-02-07T05:01:49;-1.10;99.90
20946;DHT22;10632;51.276;7.116;2023-02-07T05:04:16;-1.10;99.90
20946;DHT22;10632;51.276;7.116;2023-02-07T05:06:43;-1.10;99.90
20946;DHT22;10632;51.276;7.116;2023-02-07T05:09:09;-1.10;99.90
20946;DHT22;10632;51.276;7.116;2023-02-07T05:11:36;-1.10;99.90
20946;DHT22;10632;51.276;7.116;2023-02-07T05:14:04;-1.10;99.90
20946;DHT22;10632;51.276;7.116;2023-02-07T05:16:30;-1.20;99.90
20946;DHT22;10632;51.276;7.116;2023-02-07T05:18:59;-1.20;99.90
20946;DHT22;10632;51.276;7.116;2023-02-07T05:21:25;-1.20;99.90
20946;DHT22;10632;51.276;7.116;2023-02-07T05:23:52;-1.20;99.90
20946;DHT22;10632;51.276;7.116;2023-02-07T05:26:19;-1.20;99.90
20946;DHT22;10632;51.276;7.116;2023-02-07T05:28:46;-1.20;99.90
20946;DHT22;10632;51.276;7.116;2023-02-07T05:34:16;-1.30;99.90
20946;DHT22;10632;51.276;7.116;2023-02-07T05:36:43;-1.30;99.90
20946;DHT22;10632;51.276;7.116;2023-02-07T05:39:10;-1.30;99.90
20946;DHT22;10632;51.276;7.116;2023-02-07T05:41:37;-1.30;99.90
20946;DHT22;10632;51.276;7.116;2023-02-07T05:44:04;-1.40;99.90
20946;DHT22;10632;51.276;7.116;2023-02-07T05:46:31;-1.30;99.90
20946;DHT22;10632;51.276;7.116;2023-02-07T05:48:58;-1.30;99.90
20946;DHT22;10632;51.276;7.116;2023-02-07T05:51:27;-1.30;99.90
20946;DHT22;10632;51.276;7.116;2023-02-07T05:53:53;-1.30;99.90
20946;DHT22;10632;51.276;7.116;2023-02-07T05:56:20;-1.40;99.90
20946;DHT22;10632;51.276;7.116;2023-02-07T05:58:47;-1.40;99.90
20946;DHT22;10632;51.276;7.116;2023-02-07T06:01:22;-1.40;99.90
20946;DHT22;10632;51.276;7.116;2023-02-07T06:03:49;-1.40;99.90
20946;DHT22;10632;51.276;7.116;2023-02-07T06:06:16;-1.40;99.90
20946;DHT22;10632;51.276;7.116;2023-02-07T06:08:44;-1.40;99.90
20946;DHT22;10632;51.276;7.116;2023-02-07T06:11:11;-1.40;99.90
20946;DHT22;10632;51.276;7.116;2023-02-07T06:13:38;-1.40;99.90
20946;DHT22;10632;51.276;7.116;2023-02-07T06:16:05;-1.40;99.90
20946;DHT22;10632;51.276;7.116;2023-02-07T06:18:32;-1.50;99.90
20946;DHT22;10632;51.276;7.116;2023-02-07T06:20:59;-1.50;99.90
20946;DHT22;10632;51.276;7.116;2023-02-07T06:23:26;-1.50;99.90
20946;DHT22;10632;51.276;7.116;2023-02-07T06:25:54;-1.50;99.90
20946;DHT22;10632;51.276;7.116;2023-02-07T06:28:21;-1.50;99.90
20946;DHT22;10632;51.276;7.116;2023-02-07T06:30:49;-1.50;99.90
20946;DHT22;10632;51.276;7.116;2023-02-07T06:33:16;-1.60;99.90
20946;DHT22;10632;51.276;7.116;2023-02-07T06:35:43;-1.60;99.90
20946;DHT22;10632;51.276;7.116;2023-02-07T06:38:12;-1.60;99.90
20946;DHT22;10632;51.276;7.116;2023-02-07T06:40:39;-1.70;99.90
20946;DHT22;10632;51.276;7.116;2023-02-07T06:43:08;-1.70;99.90
20946;DHT22;10632;51.276;7.116;2023-02-07T06:45:36;-1.70;99.90
20946;DHT22;10632;51.276;7.116;2023-02-07T06:48:03;-1.70;99.90
20946;DHT22;10632;51.276;7.116;2023-02-07T06:50:32;-1.70;99.90
20946;DHT22;10632;51.276;7.116;2023-02-07T06:52:59;-1.60;99.90
20946;DHT22;10632;51.276;7.116;2023-02-07T06:55:27;-1.60;99.90
20946;DHT22;10632;51.276;7.116;2023-02-07T06:57:54;-1.70;99.90
20946;DHT22;10632;51.276;7.116;2023-02-07T07:00:23;-1.60;99.90
20946;DHT22;10632;51.276;7.116;2023-02-07T07:02:50;-1.60;99.90
20946;DHT22;10632;51.276;7.116;2023-02-07T07:05:18;-1.60;99.90
20946;DHT22;10632;51.276;7.116;2023-02-07T07:07:45;-1.60;99.90
20946;DHT22;10632;51.276;7.116;2023-02-07T07:10:12;-1.70;99.90
20946;DHT22;10632;51.276;7.116;2023-02-07T07:12:39;-1.70;99.90
20946;DHT22;10632;51.276;7.116;2023-02-07T07:15:07;-1.70;99.90
20946;DHT22;10632;51.276;7.116;2023-02-07T07:17:35;-1.70;99.90
20946;DHT22;10632;51.276;7.116;2023-02-07T07:20:02;-1.70;99.90
20946;DHT22;10632;51.276;7.116;2023-02-07T07:22:30;-1.70;99.90
20946;DHT22;10632;51.276;7.116;2023-02-07T07:25:00;-1.70;99.90
20946;DHT22;10632;51.276;7.116;2023-02-07T07:27:27;-1.70;99.90
20946;DHT22;10632;51.276;7.116;2023-02-07T07:29:53;-1.70;99.90
20946;DHT22;10632;51.276;7.116;2023-02-07T07:32:20;-1.70;99.90
20946;DHT22;10632;51.276;7.116;2023-02-07T07:34:49;-1.70;99.90
20946;DHT22;10632;51.276;7.116;2023-02-07T07:37:16;-1.70;99.90
20946;DHT22;10632;51.276;7.116;2023-02-07T07:39:43;-1.70;99.90
20946;DHT22;10632;51.276;7.116;2023-02-07T07:42:10;-1.70;99.90
20946;DHT22;10632;51.276;7.116;2023-02-07T07:44:37;-1.70;99.90
20946;DHT22;10632;51.276;7.116;2023-02-07T07:47:04;-1.70;99.90
20946;DHT22;10632;51.276;7.116;2023-02-07T07:49:31;-1.70;99.90
20946;DHT22;10632;51.276;7.116;2023-02-07T07:52:02;-1.70;99.90
20946;DHT22;10632;51.276;7.116;2023-02-07T07:54:31;-1.70;99.90
20946;DHT22;10632;51.276;7.116;2023-02-07T07:56:58;-1.70;99.90
20946;DHT22;10632;51.276;7.116;2023-02-07T07:59:26;-1.70;99.90
20946;DHT22;10632;51.276;7.116;2023-02-07T08:01:52;-1.60;99.90
20946;DHT22;10632;51.276;7.116;2023-02-07T08:04:19;-1.60;99.90
20946;DHT22;10632;51.276;7.116;2023-02-07T08:06:46;-1.60;99.90
20946;DHT22;10632;51.276;7.116;2023-02-07T08:09:15;-1.60;99.90
20946;DHT22;10632;51.276;7.116;2023-02-07T08:11:42;-1.50;99.90
20946;DHT22;10632;51.276;7.116;2023-02-07T08:14:09;-1.50;99.90
20946;DHT22;10632;51.276;7.116;2023-02-07T08:16:35;-1.50;99.90
20946;DHT22;10632;51.276;7.116;2023-02-07T08:19:02;-1.50;99.90
20946;DHT22;10632;51.276;7.116;2023-02-07T08:21:29;-1.50;99.90
20946;DHT22;10632;51.276;7.116;2023-02-07T08:23:57;-1.40;99.90
20946;DHT22;10632;51.276;7.116;2023-02-07T08:26:25;-1.40;99.90
20946;DHT22;10632;51.276;7.116;2023-02-07T08:28:52;-1.40;99.90
20946;DHT22;10632;51.276;7.116;2023-02-07T08:31:19;-1.40;99.90
20946;DHT22;10632;51.276;7.116;2023-02-07T08:33:45;-1.30;99.90
20946;DHT22;10632;51.276;7.116;2023-02-07T08:36:12;-1.30;99.90
20946;DHT22;10632;51.276;7.116;2023-02-07T08:38:39;-1.30;99.90
20946;DHT22;10632;51.276;7.116;2023-02-07T08:41:06;-1.20;99.90
20946;DHT22;10632;51.276;7.116;2023-02-07T08:43:34;-1.20;99.90
20946;DHT22;10632;51.276;7.116;2023-02-07T08:46:02;-1.20;99.90
20946;DHT22;10632;51.276;7.116;2023-02-07T08:48:29;-1.10;99.90
20946;DHT22;10632;51.276;7.116;2023-02-07T08:50:56;-1.10;99.90
20946;DHT22;10632;51.276;7.116;2023-02-07T08:53:23;-1.00;99.90
20946;DHT22;10632;51.276;7.116;2023-02-07T08:55:50;-1.00;99.90
20946;DHT22;10632;51.276;7.116;2023-02-07T08:58:17;-0.90;99.90
20946;DHT22;10632;51.276;7.116;2023-02-07T09:00:45;-0.80;99.90
20946;DHT22;10632;51.276;7.116;2023-02-07T09:03:15;-0.60;99.90
20946;DHT22;10632;51.276;7.116;2023-02-07T09:05:42;-0.50;99.90
20946;DHT22;10632;51.276;7.116;2023-02-07T09:08:09;-0.40;99.90
20946;DHT22;10632;51.276;7.116;2023-02-07T09:10:36;-0.30;99.90
20946;DHT22;10632;51.276;7.116;2023-02-07T09:13:03;-0.30;99.90
20946;DHT22;10632;51.276;7.116;2023-02-07T09:15:30;-0.20;99.90
20946;DHT22;10632;51.276;7.116;2023-02-07T09:17:58;-0.10;99.90
20946;DHT22;10632;51.276;7.116;2023-02-07T09:20:25;0.00;99.90
20946;DHT22;10632;51.276;7.116;2023-02-07T09:22:53;0.10;99.90
20946;DHT22;10632;51.276;7.116;2023-02-07T09:25:37;0.20;99.90
20946;DHT22;10632;51.276;7.116;2023-02-07T09:28:07;0.40;99.90
20946;DHT22;10632;51.276;7.116;2023-02-07T09:30:34;0.50;99.90
20946;DHT22;10632;51.276;7.116;2023-02-07T09:33:02;0.60;99.90
20946;DHT22;10632;51.276;7.116;2023-02-07T09:35:29;0.70;99.90
20946;DHT22;10632;51.276;7.116;2023-02-07T09:37:56;0.80;99.90
20946;DHT22;10632;51.276;7.116;2023-02-07T09:40:23;0.90;99.90
20946;DHT22;10632;51.276;7.116;2023-02-07T09:42:56;1.00;99.90
20946;DHT22;10632;51.276;7.116;2023-02-07T09:45:27;1.10;99.90
20946;DHT22;10632;51.276;7.116;2023-02-07T09:47:59;1.20;99.90
20946;DHT22;10632;51.276;7.116;2023-02-07T09:50:31;1.30;99.90
20946;DHT22;10632;51.276;7.116;2023-02-07T09:53:03;1.40;99.90
20946;DHT22;10632;51.276;7.116;2023-02-07T09:55:39;1.40;99.90
20946;DHT22;10632;51.276;7.116;2023-02-07T09:58:13;1.50;99.90
20946;DHT22;10632;51.276;7.116;2023-02-07T10:00:46;1.50;99.90
20946;DHT22;10632;51.276;7.116;2023-02-07T10:03:19;1.60;99.90
20946;DHT22;10632;51.276;7.116;2023-02-07T10:05:55;1.60;99.90
20946;DHT22;10632;51.276;7.116;2023-02-07T10:08:23;1.70;99.90
20946;DHT22;10632;51.276;7.116;2023-02-07T10:11:00;1.80;99.90
20946;DHT22;10632;51.276;7.116;2023-02-07T10:13:46;1.90;99.90
20946;DHT22;10632;51.276;7.116;2023-02-07T10:16:40;1.90;99.90
20946;DHT22;10632;51.276;7.116;2023-02-07T10:19:16;2.00;99.90
20946;DHT22;10632;51.276;7.116;2023-02-07T10:21:52;2.10;99.90
20946;DHT22;10632;51.276;7.116;2023-02-07T10:24:43;2.20;99.90
20946;DHT22;10632;51.276;7.116;2023-02-07T10:27:21;2.30;99.90
20946;DHT22;10632;51.276;7.116;2023-02-07T10:29:55;2.40;99.90
20946;DHT22;10632;51.276;7.116;2023-02-07T10:32:26;2.50;99.90
20946;DHT22;10632;51.276;7.116;2023-02-07T10:34:55;2.60;99.90
20946;DHT22;10632;51.276;7.116;2023-02-07T10:37:30;2.60;99.90
20946;DHT22;10632;51.276;7.116;2023-02-07T10:40:02;2.60;99.90
20946;DHT22;10632;51.276;7.116;2023-02-07T10:42:30;2.90;99.90
20946;DHT22;10632;51.276;7.116;2023-02-07T10:44:59;3.10;99.90
20946;DHT22;10632;51.276;7.116;2023-02-07T10:47:29;3.20;99.90
20946;DHT22;10632;51.276;7.116;2023-02-07T10:50:11;3.40;99.90
20946;DHT22;10632;51.276;7.116;2023-02-07T10:52:43;3.40;99.90
20946;DHT22;10632;51.276;7.116;2023-02-07T10:55:13;3.40;99.90
20946;DHT22;10632;51.276;7.116;2023-02-07T10:57:51;3.30;99.90
20946;DHT22;10632;51.276;7.116;2023-02-07T11:00:23;3.30;99.90
20946;DHT22;10632;51.276;7.116;2023-02-07T11:02:52;3.20;99.90
20946;DHT22;10632;51.276;7.116;2023-02-07T11:05:28;3.20;99.90
20946;DHT22;10632;51.276;7.116;2023-02-07T11:07:58;3.20;99.90
20946;DHT22;10632;51.276;7.116;2023-02-07T11:10:27;3.00;99.90
20946;DHT22;10632;51.276;7.116;2023-02-07T11:12:57;3.10;99.90
20946;DHT22;10632;51.276;7.116;2023-02-07T11:15:31;3.10;99.90
20946;DHT22;10632;51.276;7.116;2023-02-07T11:18:00;3.10;99.90
20946;DHT22;10632;51.276;7.116;2023-02-07T11:20:29;3.10;99.90
20946;DHT22;10632;51.276;7.116;2023-02-07T11:22:58;3.20;99.90
20946;DHT22;10632;51.276;7.116;2023-02-07T11:25:29;3.20;99.90
20946;DHT22;10632;51.276;7.116;2023-02-07T11:27:57;3.30;99.90
20946;DHT22;10632;51.276;7.116;2023-02-07T11:30:26;3.30;99.90
20946;DHT22;10632;51.276;7.116;2023-02-07T11:32:57;3.20;99.90
20946;DHT22;10632;51.276;7.116;2023-02-07T11:35:24;3.20;99.90
20946;DHT22;10632;51.276;7.116;2023-02-07T11:38:03;3.20;99.90
20946;DHT22;10632;51.276;7.116;2023-02-07T11:40:36;3.30;99.90
20946;DHT22;10632;51.276;7.116;2023-02-07T11:43:10;3.40;99.90
20946;DHT22;10632;51.276;7.116;2023-02-07T11:45:41;3.40;99.90
20946;DHT22;10632;51.276;7.116;2023-02-07T11:48:16;3.40;99.90
20946;DHT22;10632;51.276;7.116;2023-02-07T11:50:46;3.40;99.90
20946;DHT22;10632;51.276;7.116;2023-02-07T11:53:22;3.40;99.90
20946;DHT22;10632;51.276;7.116;2023-02-07T11:55:51;3.50;99.90
20946;DHT22;10632;51.276;7.116;2023-02-07T11:58:30;3.50;99.90
20946;DHT22;10632;51.276;7.116;2023-02-07T12:01:02;3.50;99.90
20946;DHT22;10632;51.276;7.116;2023-02-07T12:03:31;3.60;99.90
20946;DHT22;10632;51.276;7.116;2023-02-07T12:06:01;3.70;99.90
20946;DHT22;10632;51.276;7.116;2023-02-07T12:08:33;3.80;99.90
20946;DHT22;10632;51.276;7.116;2023-02-07T12:11:04;3.90;99.90
20946;DHT22;10632;51.276;7.116;2023-02-07T12:13:37;3.90;99.90
20946;DHT22;10632;51.276;7.116;2023-02-07T12:16:09;4.00;99.90
20946;DHT22;10632;51.276;7.116;2023-02-07T12:18:41;4.00;99.90
20946;DHT22;10632;51.276;7.116;2023-02-07T12:21:18;4.00;99.90
20946;DHT22;10632;51.276;7.116;2023-02-07T12:23:56;4.10;99.90
20946;DHT22;10632;51.276;7.116;2023-02-07T12:26:43;4.20;99.90
20946;DHT22;10632;51.276;7.116;2023-02-07T12:29:23;4.30;99.90
20946;DHT22;10632;51.276;7.116;2023-02-07T12:31:57;4.30;99.90
20946;DHT22;10632;51.276;7.116;2023-02-07T12:34:33;4.30;99.90
20946;DHT22;10632;51.276;7.116;2023-02-07T12:37:17;4.30;99.90
20946;DHT22;10632;51.276;7.116;2023-02-07T12:39:58;4.30;99.90
20946;DHT22;10632;51.276;7.116;2023-02-07T12:42:36;4.40;99.90
20946;DHT22;10632;51.276;7.116;2023-02-07T12:45:21;4.50;99.90
20946;DHT22;10632;51.276;7.116;2023-02-07T12:48:01;4.90;99.90
20946;DHT22;10632;51.276;7.116;2023-02-07T12:50:48;5.50;99.90
20946;DHT22;10632;51.276;7.116;2023-02-07T12:53:29;6.30;99.90
20946;DHT22;10632;51.276;7.116;2023-02-07T12:56:09;7.20;99.90
20946;DHT22;10632;51.276;7.116;2023-02-07T12:58:51;7.90;99.90
20946;DHT22;10632;51.276;7.116;2023-02-07T13:01:43;8.70;99.70
20946;DHT22;10632;51.276;7.116;2023-02-07T13:04:28;9.30;98.30
20946;DHT22;10632;51.276;7.116;2023-02-07T13:07:12;9.70;97.20
20946;DHT22;10632;51.276;7.116;2023-02-07T13:09:47;10.30;95.20
20946;DHT22;10632;51.276;7.116;2023-02-07T13:12:21;10.70;94.60
20946;DHT22;10632;51.276;7.116;2023-02-07T13:15:05;10.90;94.50
20946;DHT22;10632;51.276;7.116;2023-02-07T13:17:47;11.20;93.30
20946;DHT22;10632;51.276;7.116;2023-02-07T13:20:26;11.20;89.00
20946;DHT22;10632;51.276;7.116;2023-02-07T13:22:57;10.90;90.00
20946;DHT22;10632;51.276;7.116;2023-02-07T13:25:31;11.00;90.20
20946;DHT22;10632;51.276;7.116;2023-02-07T13:28:10;11.10;92.30
20946;DHT22;10632;51.276;7.116;2023-02-07T13:30:42;11.00;87.80
20946;DHT22;10632;51.276;7.116;2023-02-07T13:33:24;11.10;86.10
20946;DHT22;10632;51.276;7.116;2023-02-07T13:35:52;11.20;87.00
20946;DHT22;10632;51.276;7.116;2023-02-07T13:38:33;11.20;90.00
20946;DHT22;10632;51.276;7.116;2023-02-07T13:41:13;11.30;91.60
20946;DHT22;10632;51.276;7.116;2023-02-07T13:43:55;11.50;87.20
20946;DHT22;10632;51.276;7.116;2023-02-07T13:49:39;11.20;86.70
20946;DHT22;10632;51.276;7.116;2023-02-07T13:52:15;11.10;85.90
20946;DHT22;10632;51.276;7.116;2023-02-07T13:54:53;11.10;82.90
20946;DHT22;10632;51.276;7.116;2023-02-07T13:57:44;10.90;85.40
20946;DHT22;10632;51.276;7.116;2023-02-07T14:00:33;10.60;83.20
20946;DHT22;10632;51.276;7.116;2023-02-07T14:03:20;10.40;88.20
20946;DHT22;10632;51.276;7.116;2023-02-07T14:05:50;10.30;84.00
20946;DHT22;10632;51.276;7.116;2023-02-07T14:08:22;10.20;85.90
20946;DHT22;10632;51.276;7.116;2023-02-07T14:10:53;9.90;86.20
20946;DHT22;10632;51.276;7.116;2023-02-07T14:13:31;9.60;85.80
20946;DHT22;10632;51.276;7.116;2023-02-07T14:16:06;9.20;88.00
20946;DHT22;10632;51.276;7.116;2023-02-07T14:18:46;8.80;87.80
20946;DHT22;10632;51.276;7.116;2023-02-07T14:21:40;8.40;88.90
20946;DHT22;10632;51.276;7.116;2023-02-07T14:24:32;8.00;90.20
20946;DHT22;10632;51.276;7.116;2023-02-07T14:27:19;7.50;90.30
20946;DHT22;10632;51.276;7.116;2023-02-07T14:30:08;7.10;91.00
20946;DHT22;10632;51.276;7.116;2023-02-07T14:32:43;6.80;91.80
20946;DHT22;10632;51.276;7.116;2023-02-07T14:35:32;6.60;91.80
20946;DHT22;10632;51.276;7.116;2023-02-07T14:38:21;6.40;92.80
20946;DHT22;10632;51.276;7.116;2023-02-07T14:40:54;6.40;92.70
20946;DHT22;10632;51.276;7.116;2023-02-07T14:43:33;6.30;93.60
20946;DHT22;10632;51.276;7.116;2023-02-07T14:46:05;6.20;93.80
20946;DHT22;10632;51.276;7.116;2023-02-07T14:48:42;6.10;92.80
20946;DHT22;10632;51.276;7.116;2023-02-07T14:51:15;6.00;93.20
20946;DHT22;10632;51.276;7.116;2023-02-07T14:53:56;5.90;93.40
20946;DHT22;10632;51.276;7.116;2023-02-07T14:56:38;5.80;93.10
20946;DHT22;10632;51.276;7.116;2023-02-07T14:59:10;5.70;92.80
20946;DHT22;10632;51.276;7.116;2023-02-07T15:01:39;5.70;93.60
20946;DHT22;10632;51.276;7.116;2023-02-07T15:04:09;5.60;92.80
20946;DHT22;10632;51.276;7.116;2023-02-07T15:06:40;5.60;92.60
20946;DHT22;10632;51.276;7.116;2023-02-07T15:09:17;5.60;92.80
20946;DHT22;10632;51.276;7.116;2023-02-07T15:11:47;5.60;94.30
20946;DHT22;10632;51.276;7.116;2023-02-07T15:14:23;5.60;95.10
20946;DHT22;10632;51.276;7.116;2023-02-07T15:16:55;5.50;94.60
20946;DHT22;10632;51.276;7.116;2023-02-07T15:19:29;5.40;95.60
20946;DHT22;10632;51.276;7.116;2023-02-07T15:22:01;5.30;95.20
20946;DHT22;10632;51.276;7.116;2023-02-07T15:24:34;5.30;96.70
20946;DHT22;10632;51.276;7.116;2023-02-07T15:27:16;5.30;98.20
20946;DHT22;10632;51.276;7.116;2023-02-07T15:29:53;5.20;99.70
20946;DHT22;10632;51.276;7.116;2023-02-07T15:32:24;5.20;99.90
20946;DHT22;10632;51.276;7.116;2023-02-07T15:34:53;5.10;99.90
20946;DHT22;10632;51.276;7.116;2023-02-07T15:37:22;5.00;99.90
20946;DHT22;10632;51.276;7.116;2023-02-07T15:39:51;5.00;99.90
20946;DHT22;10632;51.276;7.116;2023-02-07T15:42:19;4.90;99.90
20946;DHT22;10632;51.276;7.116;2023-02-07T15:44:51;4.80;99.90
20946;DHT22;10632;51.276;7.116;2023-02-07T15:47:32;4.80;99.90
20946;DHT22;10632;51.276;7.116;2023-02-07T15:50:20;4.70;99.90
20946;DHT22;10632;51.276;7.116;2023-02-07T15:52:52;4.70;99.90
20946;DHT22;10632;51.276;7.116;2023-02-07T15:55:24;4.60;99.90
20946;DHT22;10632;51.276;7.116;2023-02-07T15:57:56;4.40;99.90
20946;DHT22;10632;51.276;7.116;2023-02-07T16:00:28;4.40;99.90
20946;DHT22;10632;51.276;7.116;2023-02-07T16:02:59;4.30;99.90
20946;DHT22;10632;51.276;7.116;2023-02-07T16:05:30;4.20;99.90
20946;DHT22;10632;51.276;7.116;2023-02-07T16:08:05;4.10;99.90
20946;DHT22;10632;51.276;7.116;2023-02-07T16:10:38;4.00;99.90
20946;DHT22;10632;51.276;7.116;2023-02-07T16:13:15;4.00;99.90
20946;DHT22;10632;51.276;7.116;2023-02-07T16:15:52;3.90;99.90